sensor_id;sensor_type;location;lat;lon;timestamp;P1;durP1;ratioP1;P2;durP2;ratioP2
52029;SDS011;38043;53.224;6.580;2022-08-20T00:00:21;16.20;;;6.25;;
52029;SDS011;38043;53.224;6.580;2022-08-20T00:02:51;15.68;;;6.55;;
52029;SDS011;38043;53.224;6.580;2022-08-20T00:05:25;15.18;;;5.97;;
52029;SDS011;38043;53.224;6.580;2022-08-20T00:07:53;11.57;;;5.80;;
52029;SDS011;38043;53.224;6.580;2022-08-20T00:10:19;13.73;;;6.20;;
52029;SDS011;38043;53.224;6.580;2022-08-20T00:12:46;10.55;;;5.78;;
52029;SDS011;38043;53.224;6.580;2022-08-20T00:15:14;16.02;;;6.10;;
52029;SDS011;38043;53.224;6.580;2022-08-20T00:17:43;18.92;;;5.75;;
52029;SDS011;38043;53.224;6.580;2022-08-20T00:20:10;12.82;;;6.57;;
52029;SDS011;38043;53.224;6.580;2022-08-20T00:22:37;13.13;;;6.32;;
52029;SDS011;38043;53.224;6.580;2022-08-20T00:25:03;13.95;;;5.50;;
52029;SDS011;38043;53.224;6.580;2022-08-20T00:27:30;15.23;;;5.60;;
52029;SDS011;38043;53.224;6.580;2022-08-20T00:29:56;11.52;;;5.70;;
52029;SDS011;38043;53.224;6.580;2022-08-20T00:32:22;11.38;;;5.25;;
52029;SDS011;38043;53.224;6.580;2022-08-20T00:34:48;19.88;;;6.63;;
52029;SDS011;38043;53.224;6.580;2022-08-20T00:37:13;11.93;;;5.38;;
52029;SDS011;38043;53.224;6.580;2022-08-20T00:39:39;12.00;;;5.63;;
52029;SDS011;38043;53.224;6.580;2022-08-20T00:42:05;12.55;;;5.30;;
52029;SDS011;38043;53.224;6.580;2022-08-20T00:44:31;14.68;;;5.80;;
52029;SDS011;38043;53.224;6.580;2022-08-20T00:46:57;13.45;;;5.00;;
52029;SDS011;38043;53.224;6.580;2022-08-20T00:49:29;15.43;;;5.28;;
52029;SDS011;38043;53.224;6.580;2022-08-20T00:52:10;10.85;;;4.90;;
52029;SDS011;38043;53.224;6.580;2022-08-20T00:59:55;18.70;;;5.63;;
52029;SDS011;38043;53.224;6.580;2022-08-20T01:02:23;11.68;;;5.40;;
52029;SDS011;38043;53.224;6.580;2022-08-20T01:04:52;12.13;;;5.32;;
52029;SDS011;38043;53.224;6.580;2022-08-20T01:07:20;15.65;;;5.55;;
52029;SDS011;38043;53.224;6.580;2022-08-20T01:09:52;17.27;;;6.60;;
52029;SDS011;38043;53.224;6.580;2022-08-20T01:12:18;16.88;;;6.03;;
52029;SDS011;38043;53.224;6.580;2022-08-20T01:14:44;17.40;;;6.40;;
52029;SDS011;38043;53.224;6.580;2022-08-20T01:17:13;14.40;;;6.05;;
52029;SDS011;38043;53.224;6.580;2022-08-20T01:19:46;12.60;;;5.75;;
52029;SDS011;38043;53.224;6.580;2022-08-20T01:22:16;21.15;;;7.57;;
52029;SDS011;38043;53.224;6.580;2022-08-20T01:25:13;11.82;;;5.43;;
52029;SDS011;38043;53.224;6.580;2022-08-20T01:27:45;13.70;;;6.18;;
52029;SDS011;38043;53.224;6.580;2022-08-20T01:30:12;20.65;;;6.38;;
52029;SDS011;38043;53.224;6.580;2022-08-20T01:32:37;14.60;;;5.78;;
52029;SDS011;38043;53.224;6.580;2022-08-20T01:35:03;16.63;;;6.03;;
52029;SDS011;38043;53.224;6.580;2022-08-20T01:37:29;19.88;;;6.57;;
52029;SDS011;38043;53.224;6.580;2022-08-20T01:39:55;16.88;;;5.57;;
52029;SDS011;38043;53.224;6.580;2022-08-20T01:42:26;13.68;;;6.28;;
52029;SDS011;38043;53.224;6.580;2022-08-20T01:44:56;20.17;;;6.40;;
52029;SDS011;38043;53.224;6.580;2022-08-20T01:47:26;13.73;;;6.20;;
52029;SDS011;38043;53.224;6.580;2022-08-20T01:49:56;13.30;;;6.00;;
52029;SDS011;38043;53.224;6.580;2022-08-20T01:55:11;19.50;;;5.63;;
52029;SDS011;38043;53.224;6.580;2022-08-20T01:57:37;23.45;;;6.25;;
52029;SDS011;38043;53.224;6.580;2022-08-20T02:00:05;14.25;;;5.60;;
52029;SDS011;38043;53.224;6.580;2022-08-20T02:02:33;19.33;;;6.45;;
52029;SDS011;38043;53.224;6.580;2022-08-20T02:04:59;11.20;;;5.43;;
52029;SDS011;38043;53.224;6.580;2022-08-20T02:07:25;16.75;;;6.35;;
52029;SDS011;38043;53.224;6.580;2022-08-20T02:09:51;11.70;;;5.30;;
52029;SDS011;38043;53.224;6.580;2022-08-20T02:12:17;14.68;;;6.15;;
52029;SDS011;38043;53.224;6.580;2022-08-20T02:14:44;18.27;;;5.75;;
52029;SDS011;38043;53.224;6.580;2022-08-20T02:17:12;17.95;;;6.05;;
52029;SDS011;38043;53.224;6.580;2022-08-20T02:19:40;13.45;;;6.00;;
52029;SDS011;38043;53.224;6.580;2022-08-20T02:22:16;13.30;;;6.35;;
52029;SDS011;38043;53.224;6.580;2022-08-20T02:25:12;14.25;;;5.72;;
52029;SDS011;38043;53.224;6.580;2022-08-20T02:27:40;14.93;;;5.90;;
52029;SDS011;38043;53.224;6.580;2022-08-20T02:30:11;13.00;;;5.50;;
52029;SDS011;38043;53.224;6.580;2022-08-20T02:32:41;22.67;;;6.55;;
52029;SDS011;38043;53.224;6.580;2022-08-20T02:35:07;14.98;;;5.95;;
52029;SDS011;38043;53.224;6.580;2022-08-20T02:37:35;13.57;;;5.95;;
52029;SDS011;38043;53.224;6.580;2022-08-20T02:40:01;15.50;;;6.35;;
52029;SDS011;38043;53.224;6.580;2022-08-20T02:42:29;12.45;;;5.55;;
52029;SDS011;38043;53.224;6.580;2022-08-20T02:44:55;15.77;;;5.78;;
52029;SDS011;38043;53.224;6.580;2022-08-20T02:47:22;14.90;;;5.72;;
52029;SDS011;38043;53.224;6.580;2022-08-20T02:49:49;11.18;;;5.88;;
52029;SDS011;38043;53.224;6.580;2022-08-20T02:52:15;12.15;;;5.50;;
52029;SDS011;38043;53.224;6.580;2022-08-20T02:54:40;18.80;;;5.10;;
52029;SDS011;38043;53.224;6.580;2022-08-20T02:57:10;13.88;;;4.88;;
52029;SDS011;38043;53.224;6.580;2022-08-20T02:59:37;14.88;;;5.22;;
52029;SDS011;38043;53.224;6.580;2022-08-20T03:02:03;15.98;;;5.28;;
52029;SDS011;38043;53.224;6.580;2022-08-20T03:04:28;13.90;;;4.50;;
52029;SDS011;38043;53.224;6.580;2022-08-20T03:06:54;13.10;;;4.55;;
52029;SDS011;38043;53.224;6.580;2022-08-20T03:09:21;12.55;;;5.00;;
52029;SDS011;38043;53.224;6.580;2022-08-20T03:11:47;13.40;;;4.43;;
52029;SDS011;38043;53.224;6.580;2022-08-20T03:14:13;10.88;;;3.90;;
52029;SDS011;38043;53.224;6.580;2022-08-20T03:16:39;12.82;;;3.80;;
52029;SDS011;38043;53.224;6.580;2022-08-20T03:19:04;14.30;;;4.00;;
52029;SDS011;38043;53.224;6.580;2022-08-20T03:21:30;13.43;;;4.50;;
52029;SDS011;38043;53.224;6.580;2022-08-20T03:23:56;17.70;;;3.67;;
52029;SDS011;38043;53.224;6.580;2022-08-20T03:26:22;11.93;;;3.72;;
52029;SDS011;38043;53.224;6.580;2022-08-20T03:28:47;16.67;;;3.47;;
52029;SDS011;38043;53.224;6.580;2022-08-20T03:31:13;14.85;;;3.55;;
52029;SDS011;38043;53.224;6.580;2022-08-20T03:33:39;12.63;;;3.55;;
52029;SDS011;38043;53.224;6.580;2022-08-20T03:36:05;13.18;;;3.22;;
52029;SDS011;38043;53.224;6.580;2022-08-20T03:38:32;10.85;;;3.35;;
52029;SDS011;38043;53.224;6.580;2022-08-20T03:40:57;15.85;;;3.55;;
52029;SDS011;38043;53.224;6.580;2022-08-20T03:43:23;8.10;;;2.72;;
52029;SDS011;38043;53.224;6.580;2022-08-20T03:45:49;8.45;;;2.63;;
52029;SDS011;38043;53.224;6.580;2022-08-20T03:48:16;12.05;;;3.20;;
52029;SDS011;38043;53.224;6.580;2022-08-20T03:50:44;14.93;;;3.70;;
52029;SDS011;38043;53.224;6.580;2022-08-20T03:53:11;12.75;;;3.20;;
52029;SDS011;38043;53.224;6.580;2022-08-20T03:55:38;17.87;;;4.03;;
52029;SDS011;38043;53.224;6.580;2022-08-20T03:58:05;11.00;;;3.45;;
52029;SDS011;38043;53.224;6.580;2022-08-20T04:00:35;12.90;;;3.00;;
52029;SDS011;38043;53.224;6.580;2022-08-20T04:03:06;11.77;;;2.85;;
52029;SDS011;38043;53.224;6.580;2022-08-20T04:05:33;15.00;;;2.80;;
52029;SDS011;38043;53.224;6.580;2022-08-20T04:10:27;10.13;;;2.95;;
52029;SDS011;38043;53.224;6.580;2022-08-20T04:12:53;8.43;;;2.92;;
52029;SDS011;38043;53.224;6.580;2022-08-20T04:15:19;11.10;;;2.90;;
52029;SDS011;38043;53.224;6.580;2022-08-20T04:17:48;12.77;;;3.50;;
52029;SDS011;38043;53.224;6.580;2022-08-20T04:20:15;18.08;;;3.20;;
52029;SDS011;38043;53.224;6.580;2022-08-20T04:22:46;16.25;;;3.15;;
52029;SDS011;38043;53.224;6.580;2022-08-20T04:25:12;12.35;;;3.10;;
52029;SDS011;38043;53.224;6.580;2022-08-20T04:27:38;9.18;;;2.65;;
52029;SDS011;38043;53.224;6.580;2022-08-20T04:30:06;13.57;;;2.75;;
52029;SDS011;38043;53.224;6.580;2022-08-20T04:32:35;13.02;;;3.08;;
52029;SDS011;38043;53.224;6.580;2022-08-20T04:35:06;9.82;;;3.00;;
52029;SDS011;38043;53.224;6.580;2022-08-20T04:37:36;14.63;;;3.15;;
52029;SDS011;38043;53.224;6.580;2022-08-20T04:40:07;20.20;;;3.53;;
52029;SDS011;38043;53.224;6.580;2022-08-20T04:42:54;9.90;;;2.80;;
52029;SDS011;38043;53.224;6.580;2022-08-20T04:45:19;11.10;;;3.08;;
52029;SDS011;38043;53.224;6.580;2022-08-20T04:47:46;10.35;;;2.83;;
52029;SDS011;38043;53.224;6.580;2022-08-20T04:50:12;14.07;;;2.70;;
52029;SDS011;38043;53.224;6.580;2022-08-20T04:52:38;9.07;;;2.28;;
52029;SDS011;38043;53.224;6.580;2022-08-20T04:55:05;7.78;;;2.65;;
52029;SDS011;38043;53.224;6.580;2022-08-20T04:57:31;15.68;;;2.67;;
52029;SDS011;38043;53.224;6.580;2022-08-20T05:00:00;11.27;;;2.58;;
52029;SDS011;38043;53.224;6.580;2022-08-20T05:02:26;12.27;;;2.65;;
52029;SDS011;38043;53.224;6.580;2022-08-20T05:04:51;15.65;;;2.70;;
52029;SDS011;38043;53.224;6.580;2022-08-20T05:07:17;10.70;;;3.05;;
52029;SDS011;38043;53.224;6.580;2022-08-20T05:09:43;10.60;;;2.50;;
52029;SDS011;38043;53.224;6.580;2022-08-20T05:12:09;11.23;;;2.70;;
52029;SDS011;38043;53.224;6.580;2022-08-20T05:14:36;11.02;;;2.92;;
52029;SDS011;38043;53.224;6.580;2022-08-20T05:17:04;13.52;;;3.08;;
52029;SDS011;38043;53.224;6.580;2022-08-20T05:19:31;12.68;;;2.78;;
52029;SDS011;38043;53.224;6.580;2022-08-20T05:21:58;9.88;;;2.50;;
52029;SDS011;38043;53.224;6.580;2022-08-20T05:24:24;12.70;;;3.08;;
52029;SDS011;38043;53.224;6.580;2022-08-20T05:26:50;8.73;;;2.15;;
52029;SDS011;38043;53.224;6.580;2022-08-20T05:29:19;9.80;;;2.63;;
52029;SDS011;38043;53.224;6.580;2022-08-20T05:31:45;14.82;;;2.80;;
52029;SDS011;38043;53.224;6.580;2022-08-20T05:34:11;13.05;;;2.45;;
52029;SDS011;38043;53.224;6.580;2022-08-20T05:36:38;12.10;;;2.63;;
52029;SDS011;38043;53.224;6.580;2022-08-20T05:39:08;7.25;;;2.28;;
52029;SDS011;38043;53.224;6.580;2022-08-20T05:41:34;10.63;;;2.63;;
52029;SDS011;38043;53.224;6.580;2022-08-20T05:44:01;14.47;;;2.83;;
52029;SDS011;38043;53.224;6.580;2022-08-20T05:46:28;9.52;;;2.40;;
52029;SDS011;38043;53.224;6.580;2022-08-20T05:48:55;10.82;;;2.53;;
52029;SDS011;38043;53.224;6.580;2022-08-20T05:51:21;14.32;;;2.80;;
52029;SDS011;38043;53.224;6.580;2022-08-20T05:53:46;9.60;;;2.17;;
52029;SDS011;38043;53.224;6.580;2022-08-20T05:56:12;10.43;;;2.78;;
52029;SDS011;38043;53.224;6.580;2022-08-20T05:58:38;7.53;;;2.10;;
52029;SDS011;38043;53.224;6.580;2022-08-20T06:01:04;11.50;;;2.25;;
52029;SDS011;38043;53.224;6.580;2022-08-20T06:03:30;11.40;;;2.67;;
52029;SDS011;38043;53.224;6.580;2022-08-20T06:06:14;7.43;;;1.98;;
52029;SDS011;38043;53.224;6.580;2022-08-20T06:08:40;9.48;;;2.28;;
52029;SDS011;38043;53.224;6.580;2022-08-20T06:11:05;11.88;;;2.67;;
52029;SDS011;38043;53.224;6.580;2022-08-20T06:13:32;10.70;;;2.30;;
52029;SDS011;38043;53.224;6.580;2022-08-20T06:15:59;9.05;;;2.00;;
52029;SDS011;38043;53.224;6.580;2022-08-20T06:18:25;12.05;;;2.63;;
52029;SDS011;38043;53.224;6.580;2022-08-20T06:20:51;7.40;;;2.05;;
52029;SDS011;38043;53.224;6.580;2022-08-20T06:23:17;10.48;;;2.22;;
52029;SDS011;38043;53.224;6.580;2022-08-20T06:25:43;10.75;;;2.55;;
52029;SDS011;38043;53.224;6.580;2022-08-20T06:28:09;5.65;;;2.05;;
52029;SDS011;38043;53.224;6.580;2022-08-20T06:30:37;11.68;;;2.25;;
52029;SDS011;38043;53.224;6.580;2022-08-20T06:33:02;7.50;;;2.13;;
52029;SDS011;38043;53.224;6.580;2022-08-20T06:35:28;7.60;;;2.00;;
52029;SDS011;38043;53.224;6.580;2022-08-20T06:37:54;8.40;;;2.25;;
52029;SDS011;38043;53.224;6.580;2022-08-20T06:40:22;9.68;;;2.00;;
52029;SDS011;38043;53.224;6.580;2022-08-20T06:42:50;11.75;;;2.45;;
52029;SDS011;38043;53.224;6.580;2022-08-20T06:45:18;7.60;;;2.00;;
52029;SDS011;38043;53.224;6.580;2022-08-20T06:47:48;8.00;;;2.15;;
52029;SDS011;38043;53.224;6.580;2022-08-20T06:50:17;7.10;;;1.93;;
52029;SDS011;38043;53.224;6.580;2022-08-20T06:52:44;7.97;;;1.90;;
52029;SDS011;38043;53.224;6.580;2022-08-20T06:55:14;11.02;;;1.85;;
52029;SDS011;38043;53.224;6.580;2022-08-20T06:57:40;7.15;;;1.88;;
52029;SDS011;38043;53.224;6.580;2022-08-20T07:00:09;6.93;;;1.50;;
52029;SDS011;38043;53.224;6.580;2022-08-20T07:02:38;10.80;;;1.90;;
52029;SDS011;38043;53.224;6.580;2022-08-20T07:05:04;7.57;;;1.88;;
52029;SDS011;38043;53.224;6.580;2022-08-20T07:07:31;7.13;;;2.05;;
52029;SDS011;38043;53.224;6.580;2022-08-20T07:09:57;7.82;;;1.60;;
52029;SDS011;38043;53.224;6.580;2022-08-20T07:14:50;7.60;;;1.70;;
52029;SDS011;38043;53.224;6.580;2022-08-20T07:17:16;9.82;;;1.58;;
52029;SDS011;38043;53.224;6.580;2022-08-20T07:19:42;6.85;;;1.80;;
52029;SDS011;38043;53.224;6.580;2022-08-20T07:22:07;9.73;;;2.20;;
52029;SDS011;38043;53.224;6.580;2022-08-20T07:24:33;6.90;;;2.00;;
52029;SDS011;38043;53.224;6.580;2022-08-20T07:26:58;5.80;;;1.73;;
52029;SDS011;38043;53.224;6.580;2022-08-20T07:29:25;6.82;;;2.00;;
52029;SDS011;38043;53.224;6.580;2022-08-20T07:32:10;7.15;;;2.05;;
52029;SDS011;38043;53.224;6.580;2022-08-20T07:34:54;9.30;;;1.92;;
52029;SDS011;38043;53.224;6.580;2022-08-20T07:37:20;8.50;;;1.75;;
52029;SDS011;38043;53.224;6.580;2022-08-20T07:39:48;11.80;;;1.73;;
52029;SDS011;38043;53.224;6.580;2022-08-20T07:42:14;10.27;;;2.17;;
52029;SDS011;38043;53.224;6.580;2022-08-20T07:44:39;7.88;;;1.77;;
52029;SDS011;38043;53.224;6.580;2022-08-20T07:47:05;9.23;;;1.67;;
52029;SDS011;38043;53.224;6.580;2022-08-20T07:49:31;6.00;;;1.50;;
52029;SDS011;38043;53.224;6.580;2022-08-20T07:52:02;6.05;;;1.70;;
52029;SDS011;38043;53.224;6.580;2022-08-20T07:54:31;6.82;;;2.13;;
52029;SDS011;38043;53.224;6.580;2022-08-20T07:59:28;4.90;;;1.75;;
52029;SDS011;38043;53.224;6.580;2022-08-20T08:01:55;10.00;;;2.15;;
52029;SDS011;38043;53.224;6.580;2022-08-20T08:04:22;7.50;;;1.90;;
52029;SDS011;38043;53.224;6.580;2022-08-20T08:06:50;6.07;;;1.75;;
52029;SDS011;38043;53.224;6.580;2022-08-20T08:09:16;6.60;;;1.45;;
52029;SDS011;38043;53.224;6.580;2022-08-20T08:11:44;6.35;;;1.70;;
52029;SDS011;38043;53.224;6.580;2022-08-20T08:14:16;8.60;;;1.77;;
52029;SDS011;38043;53.224;6.580;2022-08-20T08:16:47;7.10;;;1.90;;
52029;SDS011;38043;53.224;6.580;2022-08-20T08:19:13;6.90;;;1.80;;
52029;SDS011;38043;53.224;6.580;2022-08-20T08:21:40;8.07;;;2.13;;
52029;SDS011;38043;53.224;6.580;2022-08-20T08:24:08;7.07;;;1.60;;
52029;SDS011;38043;53.224;6.580;2022-08-20T08:26:35;5.93;;;1.73;;
52029;SDS011;38043;53.224;6.580;2022-08-20T08:29:02;12.73;;;2.25;;
52029;SDS011;38043;53.224;6.580;2022-08-20T08:31:31;10.95;;;2.22;;
52029;SDS011;38043;53.224;6.580;2022-08-20T08:33:58;10.18;;;2.00;;
52029;SDS011;38043;53.224;6.580;2022-08-20T08:36:24;8.82;;;2.22;;
52029;SDS011;38043;53.224;6.580;2022-08-20T08:38:50;8.48;;;2.28;;
52029;SDS011;38043;53.224;6.580;2022-08-20T08:43:58;8.98;;;2.03;;
52029;SDS011;38043;53.224;6.580;2022-08-20T08:46:40;8.82;;;1.70;;
52029;SDS011;38043;53.224;6.580;2022-08-20T08:49:09;9.73;;;2.40;;
52029;SDS011;38043;53.224;6.580;2022-08-20T08:51:39;7.75;;;1.90;;
52029;SDS011;38043;53.224;6.580;2022-08-20T08:54:13;6.75;;;2.45;;
52029;SDS011;38043;53.224;6.580;2022-08-20T08:56:44;8.82;;;1.75;;
52029;SDS011;38043;53.224;6.580;2022-08-20T08:59:10;7.05;;;1.85;;
52029;SDS011;38043;53.224;6.580;2022-08-20T09:01:40;6.65;;;1.88;;
52029;SDS011;38043;53.224;6.580;2022-08-20T09:04:10;6.35;;;1.70;;
52029;SDS011;38043;53.224;6.580;2022-08-20T09:06:40;13.75;;;2.35;;
52029;SDS011;38043;53.224;6.580;2022-08-20T09:09:10;7.85;;;2.03;;
52029;SDS011;38043;53.224;6.580;2022-08-20T09:11:48;6.47;;;1.90;;
52029;SDS011;38043;53.224;6.580;2022-08-20T09:14:17;6.63;;;1.80;;
52029;SDS011;38043;53.224;6.580;2022-08-20T09:16:44;5.78;;;1.58;;
52029;SDS011;38043;53.224;6.580;2022-08-20T09:19:10;6.72;;;1.77;;
52029;SDS011;38043;53.224;6.580;2022-08-20T09:21:36;7.00;;;2.10;;
52029;SDS011;38043;53.224;6.580;2022-08-20T09:24:02;8.10;;;1.90;;
52029;SDS011;38043;53.224;6.580;2022-08-20T09:26:29;8.13;;;1.90;;
52029;SDS011;38043;53.224;6.580;2022-08-20T09:28:55;5.20;;;1.80;;
52029;SDS011;38043;53.224;6.580;2022-08-20T09:31:20;6.18;;;2.00;;
52029;SDS011;38043;53.224;6.580;2022-08-20T09:33:48;4.97;;;1.60;;
52029;SDS011;38043;53.224;6.580;2022-08-20T09:36:15;8.10;;;2.20;;
52029;SDS011;38043;53.224;6.580;2022-08-20T09:38:40;12.02;;;2.33;;
52029;SDS011;38043;53.224;6.580;2022-08-20T09:41:06;5.93;;;1.98;;
52029;SDS011;38043;53.224;6.580;2022-08-20T09:43:32;10.40;;;1.88;;
52029;SDS011;38043;53.224;6.580;2022-08-20T09:45:57;8.00;;;2.30;;
52029;SDS011;38043;53.224;6.580;2022-08-20T09:48:23;8.32;;;1.95;;
52029;SDS011;38043;53.224;6.580;2022-08-20T09:50:49;6.18;;;2.00;;
52029;SDS011;38043;53.224;6.580;2022-08-20T09:53:16;8.40;;;2.35;;
52029;SDS011;38043;53.224;6.580;2022-08-20T09:55:44;7.88;;;2.08;;
52029;SDS011;38043;53.224;6.580;2022-08-20T09:58:22;9.10;;;1.88;;
52029;SDS011;38043;53.224;6.580;2022-08-20T10:01:05;7.97;;;2.00;;
52029;SDS011;38043;53.224;6.580;2022-08-20T10:03:32;10.50;;;2.00;;
52029;SDS011;38043;53.224;6.580;2022-08-20T10:05:58;8.73;;;2.03;;
52029;SDS011;38043;53.224;6.580;2022-08-20T10:08:24;7.90;;;2.20;;
52029;SDS011;38043;53.224;6.580;2022-08-20T10:10:50;12.00;;;2.22;;
52029;SDS011;38043;53.224;6.580;2022-08-20T10:13:15;8.95;;;1.80;;
52029;SDS011;38043;53.224;6.580;2022-08-20T10:15:41;11.65;;;2.08;;
52029;SDS011;38043;53.224;6.580;2022-08-20T10:18:07;11.57;;;2.30;;
52029;SDS011;38043;53.224;6.580;2022-08-20T10:20:33;6.78;;;1.75;;
52029;SDS011;38043;53.224;6.580;2022-08-20T10:23:00;7.00;;;2.00;;
52029;SDS011;38043;53.224;6.580;2022-08-20T10:25:25;11.68;;;2.20;;
52029;SDS011;38043;53.224;6.580;2022-08-20T10:27:53;8.88;;;1.73;;
52029;SDS011;38043;53.224;6.580;2022-08-20T10:30:19;8.10;;;1.90;;
52029;SDS011;38043;53.224;6.580;2022-08-20T10:32:45;10.93;;;2.30;;
52029;SDS011;38043;53.224;6.580;2022-08-20T10:35:11;6.68;;;1.90;;
52029;SDS011;38043;53.224;6.580;2022-08-20T10:37:36;9.60;;;2.03;;
52029;SDS011;38043;53.224;6.580;2022-08-20T10:40:02;8.52;;;1.88;;
52029;SDS011;38043;53.224;6.580;2022-08-20T10:42:29;14.73;;;2.17;;
52029;SDS011;38043;53.224;6.580;2022-08-20T10:44:54;7.13;;;1.80;;
52029;SDS011;38043;53.224;6.580;2022-08-20T10:49:53;11.63;;;2.17;;
52029;SDS011;38043;53.224;6.580;2022-08-20T10:54:46;7.32;;;2.20;;
52029;SDS011;38043;53.224;6.580;2022-08-20T10:57:18;10.43;;;2.40;;
52029;SDS011;38043;53.224;6.580;2022-08-20T10:59:49;7.18;;;2.30;;
52029;SDS011;38043;53.224;6.580;2022-08-20T11:02:16;6.80;;;2.10;;
52029;SDS011;38043;53.224;6.580;2022-08-20T11:04:43;7.95;;;2.30;;
52029;SDS011;38043;53.224;6.580;2022-08-20T11:07:12;7.70;;;2.10;;
52029;SDS011;38043;53.224;6.580;2022-08-20T11:09:41;9.63;;;2.47;;
52029;SDS011;38043;53.224;6.580;2022-08-20T11:12:07;11.98;;;2.70;;
52029;SDS011;38043;53.224;6.580;2022-08-20T11:14:34;7.72;;;1.95;;
52029;SDS011;38043;53.224;6.580;2022-08-20T11:17:00;8.50;;;2.35;;
52029;SDS011;38043;53.224;6.580;2022-08-20T11:19:27;9.03;;;2.30;;
52029;SDS011;38043;53.224;6.580;2022-08-20T11:21:53;9.63;;;2.40;;
52029;SDS011;38043;53.224;6.580;2022-08-20T11:24:19;9.25;;;2.13;;
52029;SDS011;38043;53.224;6.580;2022-08-20T11:26:45;9.05;;;2.78;;
52029;SDS011;38043;53.224;6.580;2022-08-20T11:29:12;7.97;;;2.00;;
52029;SDS011;38043;53.224;6.580;2022-08-20T11:31:38;6.30;;;2.03;;
52029;SDS011;38043;53.224;6.580;2022-08-20T11:34:05;8.45;;;1.98;;
52029;SDS011;38043;53.224;6.580;2022-08-20T11:36:31;7.15;;;2.08;;
52029;SDS011;38043;53.224;6.580;2022-08-20T11:38:56;7.97;;;2.00;;
52029;SDS011;38043;53.224;6.580;2022-08-20T11:41:22;7.78;;;1.98;;
52029;SDS011;38043;53.224;6.580;2022-08-20T11:43:48;8.75;;;2.30;;
52029;SDS011;38043;53.224;6.580;2022-08-20T11:46:13;16.02;;;2.20;;
52029;SDS011;38043;53.224;6.580;2022-08-20T11:48:39;8.65;;;1.98;;
52029;SDS011;38043;53.224;6.580;2022-08-20T11:51:05;7.18;;;1.95;;
52029;SDS011;38043;53.224;6.580;2022-08-20T11:53:30;9.68;;;2.35;;
52029;SDS011;38043;53.224;6.580;2022-08-20T11:55:56;4.55;;;1.42;;
52029;SDS011;38043;53.224;6.580;2022-08-20T11:58:22;9.38;;;2.10;;
52029;SDS011;38043;53.224;6.580;2022-08-20T12:00:48;7.20;;;1.75;;
52029;SDS011;38043;53.224;6.580;2022-08-20T12:03:13;4.80;;;2.00;;
52029;SDS011;38043;53.224;6.580;2022-08-20T12:05:41;7.63;;;2.00;;
52029;SDS011;38043;53.224;6.580;2022-08-20T12:08:11;6.15;;;1.67;;
52029;SDS011;38043;53.224;6.580;2022-08-20T12:13:05;8.63;;;2.63;;
52029;SDS011;38043;53.224;6.580;2022-08-20T12:15:33;19.08;;;2.53;;
52029;SDS011;38043;53.224;6.580;2022-08-20T12:17:59;6.78;;;1.90;;
52029;SDS011;38043;53.224;6.580;2022-08-20T12:20:25;6.20;;;2.20;;
52029;SDS011;38043;53.224;6.580;2022-08-20T12:22:51;6.35;;;2.40;;
52029;SDS011;38043;53.224;6.580;2022-08-20T12:25:18;7.85;;;1.90;;
52029;SDS011;38043;53.224;6.580;2022-08-20T12:27:44;8.77;;;2.13;;
52029;SDS011;38043;53.224;6.580;2022-08-20T12:30:11;8.80;;;1.98;;
52029;SDS011;38043;53.224;6.580;2022-08-20T12:32:39;8.20;;;1.80;;
52029;SDS011;38043;53.224;6.580;2022-08-20T12:35:06;6.72;;;1.90;;
52029;SDS011;38043;53.224;6.580;2022-08-20T12:37:32;9.18;;;2.47;;
52029;SDS011;38043;53.224;6.580;2022-08-20T12:39:59;10.77;;;2.35;;
52029;SDS011;38043;53.224;6.580;2022-08-20T12:42:28;8.82;;;2.10;;
52029;SDS011;38043;53.224;6.580;2022-08-20T12:44:57;7.18;;;2.20;;
52029;SDS011;38043;53.224;6.580;2022-08-20T12:47:24;12.00;;;2.50;;
52029;SDS011;38043;53.224;6.580;2022-08-20T12:49:53;11.02;;;2.13;;
52029;SDS011;38043;53.224;6.580;2022-08-20T12:52:23;6.47;;;2.05;;
52029;SDS011;38043;53.224;6.580;2022-08-20T12:54:49;12.85;;;3.00;;
52029;SDS011;38043;53.224;6.580;2022-08-20T12:57:21;8.07;;;2.13;;
52029;SDS011;38043;53.224;6.580;2022-08-20T12:59:57;8.00;;;2.10;;
52029;SDS011;38043;53.224;6.580;2022-08-20T13:02:25;7.65;;;2.30;;
52029;SDS011;38043;53.224;6.580;2022-08-20T13:04:51;10.90;;;2.05;;
52029;SDS011;38043;53.224;6.580;2022-08-20T13:07:17;7.03;;;2.17;;
52029;SDS011;38043;53.224;6.580;2022-08-20T13:09:42;43.05;;;3.80;;
52029;SDS011;38043;53.224;6.580;2022-08-20T13:12:09;6.20;;;2.10;;
52029;SDS011;38043;53.224;6.580;2022-08-20T13:14:36;13.05;;;3.10;;
52029;SDS011;38043;53.224;6.580;2022-08-20T13:17:02;6.50;;;2.10;;
52029;SDS011;38043;53.224;6.580;2022-08-20T13:19:29;10.38;;;2.75;;
52029;SDS011;38043;53.224;6.580;2022-08-20T13:21:55;8.32;;;2.17;;
52029;SDS011;38043;53.224;6.580;2022-08-20T13:24:21;7.40;;;2.17;;
52029;SDS011;38043;53.224;6.580;2022-08-20T13:26:47;6.13;;;2.05;;
52029;SDS011;38043;53.224;6.580;2022-08-20T13:29:13;11.10;;;2.90;;
52029;SDS011;38043;53.224;6.580;2022-08-20T13:31:40;9.27;;;2.45;;
52029;SDS011;38043;53.224;6.580;2022-08-20T13:34:06;5.10;;;2.15;;
52029;SDS011;38043;53.224;6.580;2022-08-20T13:36:32;7.38;;;2.20;;
52029;SDS011;38043;53.224;6.580;2022-08-20T13:38:58;6.97;;;2.20;;
52029;SDS011;38043;53.224;6.580;2022-08-20T13:41:25;6.47;;;2.10;;
52029;SDS011;38043;53.224;6.580;2022-08-20T13:43:51;8.05;;;2.20;;
52029;SDS011;38043;53.224;6.580;2022-08-20T13:46:16;8.35;;;2.35;;
52029;SDS011;38043;53.224;6.580;2022-08-20T13:48:42;10.20;;;2.42;;
52029;SDS011;38043;53.224;6.580;2022-08-20T13:51:08;7.88;;;2.40;;
52029;SDS011;38043;53.224;6.580;2022-08-20T13:53:34;13.60;;;3.00;;
52029;SDS011;38043;53.224;6.580;2022-08-20T13:55:59;11.18;;;8.15;;
52029;SDS011;38043;53.224;6.580;2022-08-20T13:58:25;29.50;;;21.40;;
52029;SDS011;38043;53.224;6.580;2022-08-20T14:00:51;29.65;;;22.88;;
52029;SDS011;38043;53.224;6.580;2022-08-20T14:03:17;13.50;;;6.85;;
52029;SDS011;38043;53.224;6.580;2022-08-20T14:05:42;12.23;;;2.85;;
52029;SDS011;38043;53.224;6.580;2022-08-20T14:08:10;11.45;;;2.90;;
52029;SDS011;38043;53.224;6.580;2022-08-20T14:10:38;6.90;;;2.35;;
52029;SDS011;38043;53.224;6.580;2022-08-20T14:13:05;9.07;;;2.58;;
52029;SDS011;38043;53.224;6.580;2022-08-20T14:15:31;9.45;;;2.55;;
52029;SDS011;38043;53.224;6.580;2022-08-20T14:17:58;9.60;;;2.90;;
52029;SDS011;38043;53.224;6.580;2022-08-20T14:20:26;8.82;;;2.17;;
52029;SDS011;38043;53.224;6.580;2022-08-20T14:22:53;8.48;;;2.83;;
52029;SDS011;38043;53.224;6.580;2022-08-20T14:25:20;6.95;;;2.40;;
52029;SDS011;38043;53.224;6.580;2022-08-20T14:27:46;9.02;;;2.60;;
52029;SDS011;38043;53.224;6.580;2022-08-20T14:30:14;7.93;;;2.47;;
52029;SDS011;38043;53.224;6.580;2022-08-20T14:32:42;9.80;;;2.55;;
52029;SDS011;38043;53.224;6.580;2022-08-20T14:35:07;11.40;;;2.40;;
52029;SDS011;38043;53.224;6.580;2022-08-20T14:37:35;5.78;;;2.20;;
52029;SDS011;38043;53.224;6.580;2022-08-20T14:40:04;9.50;;;2.15;;
52029;SDS011;38043;53.224;6.580;2022-08-20T14:42:32;11.30;;;2.72;;
52029;SDS011;38043;53.224;6.580;2022-08-20T14:44:58;7.28;;;2.40;;
52029;SDS011;38043;53.224;6.580;2022-08-20T14:47:45;8.10;;;2.90;;
52029;SDS011;38043;53.224;6.580;2022-08-20T14:50:18;7.70;;;2.70;;
52029;SDS011;38043;53.224;6.580;2022-08-20T14:52:52;10.20;;;2.55;;
52029;SDS011;38043;53.224;6.580;2022-08-20T14:55:20;9.75;;;2.53;;
52029;SDS011;38043;53.224;6.580;2022-08-20T14:57:47;7.50;;;2.25;;
52029;SDS011;38043;53.224;6.580;2022-08-20T15:00:15;11.38;;;2.15;;
52029;SDS011;38043;53.224;6.580;2022-08-20T15:02:44;8.07;;;2.42;;
52029;SDS011;38043;53.224;6.580;2022-08-20T15:05:10;9.32;;;3.92;;
52029;SDS011;38043;53.224;6.580;2022-08-20T15:07:41;8.93;;;2.75;;